Time;durP1;ratioP1;P1;durP2;ratioP2;P2;SDS_P1;SDS_P2;PMS_P1;PMS_P2;Temp;Humidity;BMP_temperature;BMP_pressure;BME280_temperature;BME280_humidity;BME280_pressure;Samples;Min_cycle;Max_cycle;Signal;HPM_P1;HPM_P2
2021/12/11 00:00:31;;;;;;;0.57;0.57;;;-0.90;99.90;;;;;;5071831;28;20208;-86
2021/12/11 00:03:02;;;;;;;0.85;0.57;;;-0.80;99.90;;;;;;5070925;28;20199;-86
2021/12/11 00:05:30;;;;;;;0.30;0.20;;;-0.70;99.90;;;;;;5071710;28;20276;-86
2021/12/11 00:07:58;;;;;;;0.30;0.10;;;-0.80;99.90;;;;;;5069206;28;20260;-86
2021/12/11 00:10:29;;;;;;;0.30;0.20;;;-0.90;99.90;;;;;;5071145;28;20239;-86
2021/12/11 00:13:00;;;;;;;0.30;0.20;;;-0.90;99.90;;;;;;5070371;28;20199;-86
2021/12/11 00:15:31;;;;;;;0.30;0.10;;;-0.90;99.90;;;;;;5070796;28;20676;-86
2021/12/11 00:17:59;;;;;;;0.30;0.10;;;-0.80;99.90;;;;;;5071072;28;20243;-86
2021/12/11 00:20:30;;;;;;;0.40;0.20;;;-0.90;99.90;;;;;;5078736;28;20207;-86
2021/12/11 00:22:58;;;;;;;0.30;0.10;;;-0.90;99.90;;;;;;5073579;28;20216;-86
2021/12/11 00:25:27;;;;;;;0.30;0.15;;;-0.90;99.90;;;;;;5072642;28;20263;-86
2021/12/11 00:28:03;;;;;;;0.65;0.60;;;-0.80;99.90;;;;;;5065889;28;20276;-86
2021/12/11 00:30:35;;;;;;;0.30;0.10;;;-0.70;99.90;;;;;;5059935;28;20211;-86
2021/12/11 00:33:05;;;;;;;0.30;0.10;;;-0.60;99.90;;;;;;5066342;28;20195;-86
2021/12/11 00:35:34;;;;;;;0.30;0.10;;;-0.70;99.90;;;;;;5070225;28;20221;-86
2021/12/11 00:38:06;;;;;;;0.30;0.20;;;-0.70;99.90;;;;;;5070430;28;20688;-87
2021/12/11 00:40:36;;;;;;;0.30;0.10;;;-0.80;99.90;;;;;;5069914;28;20646;-87
2021/12/11 00:43:06;;;;;;;0.30;0.20;;;-0.90;99.90;;;;;;5070457;28;20344;-87
2021/12/11 00:45:35;;;;;;;0.30;0.20;;;-1.00;99.90;;;;;;5069903;28;20272;-86
2021/12/11 00:48:06;;;;;;;0.30;0.20;;;-0.90;99.90;;;;;;5070465;28;20280;-87
2021/12/11 00:50:38;;;;;;;0.30;0.10;;;-0.90;99.90;;;;;;5065715;28;20262;-87
2021/12/11 00:53:11;;;;;;;0.30;0.20;;;-0.90;99.90;;;;;;5070670;28;20823;-86
2021/12/11 00:55:42;;;;;;;0.30;0.10;;;-1.00;99.90;;;;;;5070037;28;20218;-86
2021/12/11 00:58:12;;;;;;;0.30;0.10;;;-1.00;99.90;;;;;;5070361;28;20232;-86
2021/12/11 01:00:43;;;;;;;0.30;0.10;;;-0.90;99.90;;;;;;5069990;28;20190;-86
2021/12/11 01:03:11;;;;;;;0.30;0.20;;;-0.80;99.90;;;;;;5069479;28;20252;-86
2021/12/11 01:05:43;;;;;;;0.30;0.10;;;-0.80;99.90;;;;;;5069026;28;20202;-86
2021/12/11 01:08:17;;;;;;;0.30;0.10;;;-0.80;99.90;;;;;;5067154;28;20205;-86
2021/12/11 01:10:47;;;;;;;0.68;0.68;;;-0.80;99.90;;;;;;5069839;28;20690;-86
2021/12/11 01:13:18;;;;;;;0.30;0.10;;;-0.70;99.90;;;;;;5070269;28;20195;-86
2021/12/11 01:15:49;;;;;;;0.30;0.10;;;-0.60;99.90;;;;;;5076057;28;20230;-86
2021/12/11 01:18:33;;;;;;;0.30;0.20;;;-0.60;99.90;;;;;;5081791;28;20206;-86
2021/12/11 01:21:14;;;;;;;0.30;0.20;;;-0.60;99.90;;;;;;5073838;28;20209;-86
2021/12/11 01:23:57;;;;;;;0.40;0.30;;;-0.50;99.90;;;;;;5065648;28;20274;-85
2021/12/11 01:26:25;;;;;;;0.30;0.20;;;-0.50;99.90;;;;;;5066486;28;20211;-86
2021/12/11 01:28:53;;;;;;;1.00;0.95;;;-0.50;99.90;;;;;;5066984;28;20201;-86
2021/12/11 01:31:22;;;;;;;0.30;0.10;;;-0.40;99.90;;;;;;5066341;28;20209;-86
2021/12/11 01:33:50;;;;;;;0.30;0.10;;;-0.50;99.90;;;;;;5060742;28;20673;-86
2021/12/11 01:36:18;;;;;;;0.30;0.10;;;-0.50;99.90;;;;;;5069227;28;20679;-86
2021/12/11 01:38:46;;;;;;;0.30;0.10;;;-0.40;99.90;;;;;;5069509;28;20208;-86
2021/12/11 01:41:17;;;;;;;0.30;0.10;;;-0.40;99.90;;;;;;5068806;28;20231;-86
2021/12/11 01:43:48;;;;;;;0.30;0.10;;;-0.40;99.90;;;;;;5069958;28;20196;-86
2021/12/11 01:46:16;;;;;;;0.30;0.10;;;-0.30;99.90;;;;;;5068261;28;20272;-87
2021/12/11 01:48:46;;;;;;;0.47;0.43;;;-0.40;99.90;;;;;;5069603;28;20200;-86
2021/12/11 01:51:19;;;;;;;0.30;0.20;;;-0.40;99.90;;;;;;5070102;28;20195;-87
2021/12/11 01:53:50;;;;;;;0.30;0.10;;;-0.40;99.90;;;;;;5069278;28;20261;-86
2021/12/11 01:56:21;;;;;;;0.88;0.88;;;-0.40;99.90;;;;;;5069305;28;20281;-86
2021/12/11 01:58:57;;;;;;;0.30;0.17;;;-0.40;99.90;;;;;;5070091;28;20552;-85
2021/12/11 02:01:30;;;;;;;0.30;0.10;;;-0.30;99.90;;;;;;5068604;28;20210;-86
2021/12/11 02:03:59;;;;;;;0.40;0.20;;;-0.40;99.90;;;;;;5068995;28;20230;-85
2021/12/11 02:06:29;;;;;;;0.30;0.10;;;-0.30;99.90;;;;;;5069787;28;20261;-86
2021/12/11 02:08:56;;;;;;;0.30;0.10;;;-0.30;99.90;;;;;;5068010;28;20679;-86
2021/12/11 02:11:29;;;;;;;0.77;0.77;;;-0.30;99.90;;;;;;5069326;28;20776;-86
2021/12/11 02:14:04;;;;;;;0.30;0.20;;;-0.20;99.90;;;;;;5089500;28;20203;-86
2021/12/11 02:16:38;;;;;;;0.30;0.10;;;-0.20;99.90;;;;;;5080826;28;20801;-88
2021/12/11 02:19:09;;;;;;;0.40;0.30;;;-0.20;99.90;;;;;;5065098;28;20234;-86
2021/12/11 02:21:39;;;;;;;0.30;0.10;;;-0.10;99.90;;;;;;5066659;28;20186;-86
2021/12/11 02:24:10;;;;;;;0.30;0.10;;;-0.10;99.90;;;;;;5069058;28;20523;-87
2021/12/11 02:26:40;;;;;;;0.30;0.10;;;-0.10;99.90;;;;;;5066932;28;20201;-86
2021/12/11 02:29:14;;;;;;;2.95;2.35;;;-0.20;99.90;;;;;;5060225;28;20731;-86
2021/12/11 02:31:46;;;;;;;0.30;0.20;;;-0.10;99.90;;;;;;5072087;28;20203;-86
2021/12/11 02:34:20;;;;;;;0.30;0.10;;;-0.10;99.90;;;;;;5072860;28;20321;-86
2021/12/11 02:36:53;;;;;;;0.30;0.10;;;-0.10;99.90;;;;;;5072059;28;20217;-87
2021/12/11 02:39:26;;;;;;;0.30;0.10;;;-0.10;99.90;;;;;;5073313;28;20191;-86
2021/12/11 02:41:57;;;;;;;0.30;0.10;;;-0.30;99.90;;;;;;5072464;28;20620;-86
2021/12/11 02:44:28;;;;;;;0.30;0.10;;;-0.40;99.90;;;;;;5072064;28;20191;-86
2021/12/11 02:46:58;;;;;;;1.42;1.42;;;-0.30;99.90;;;;;;5072677;28;20199;-86
2021/12/11 02:49:30;;;;;;;1.00;1.00;;;-0.40;99.90;;;;;;5072757;28;20248;-86
2021/12/11 02:52:01;;;;;;;0.30;0.10;;;-0.50;99.90;;;;;;5070444;28;20349;-87
2021/12/11 02:54:36;;;;;;;0.52;0.50;;;-0.50;99.90;;;;;;5072492;28;20189;-87
2021/12/11 02:57:10;;;;;;;0.30;0.20;;;-0.60;99.90;;;;;;5065671;28;20220;-86
2021/12/11 02:59:42;;;;;;;0.30;0.10;;;-0.60;99.90;;;;;;5070891;28;20196;-86
2021/12/11 03:02:13;;;;;;;0.30;0.20;;;-0.40;99.90;;;;;;5072075;28;20224;-86
2021/12/11 03:04:47;;;;;;;1.15;1.10;;;-0.40;99.90;;;;;;5073078;28;20195;-86
2021/12/11 03:07:16;;;;;;;0.30;0.10;;;-0.40;99.90;;;;;;5072274;28;20241;-86
2021/12/11 03:09:50;;;;;;;0.30;0.10;;;-0.50;99.90;;;;;;5085026;28;20209;-86
2021/12/11 03:12:18;;;;;;;0.30;0.10;;;-0.60;99.90;;;;;;5083833;28;20191;-86
2021/12/11 03:14:47;;;;;;;0.30;0.10;;;-0.60;99.90;;;;;;5071993;28;20807;-86
2021/12/11 03:17:15;;;;;;;0.60;0.32;;;-0.70;99.90;;;;;;5067483;28;20228;-86
2021/12/11 03:19:44;;;;;;;0.30;0.10;;;-0.80;99.90;;;;;;5068652;28;20250;-86
2021/12/11 03:22:15;;;;;;;0.30;0.28;;;-0.90;99.90;;;;;;5070307;28;20204;-87
2021/12/11 03:24:44;;;;;;;0.30;0.10;;;-0.80;99.90;;;;;;5072622;28;20647;-86
2021/12/11 03:27:11;;;;;;;0.30;0.10;;;-0.90;99.90;;;;;;5071233;28;20690;-86
2021/12/11 03:29:38;;;;;;;0.30;0.10;;;-1.00;99.90;;;;;;5072555;28;20545;-85
2021/12/11 03:32:08;;;;;;;0.30;0.10;;;-0.90;99.90;;;;;;5063484;28;20297;-86
2021/12/11 03:34:36;;;;;;;0.30;0.10;;;-0.90;99.90;;;;;;5065990;28;20819;-86
2021/12/11 03:37:07;;;;;;;0.30;0.10;;;-0.90;99.90;;;;;;5067837;28;20290;-86
2021/12/11 03:39:38;;;;;;;0.30;0.20;;;-0.80;99.90;;;;;;5070281;28;20249;-86
2021/12/11 03:42:11;;;;;;;0.30;0.10;;;-0.70;99.90;;;;;;5066583;28;20198;-87
2021/12/11 03:44:38;;;;;;;0.30;0.10;;;-0.70;99.90;;;;;;5068802;28;20250;-85
2021/12/11 03:47:10;;;;;;;0.30;0.10;;;-0.70;99.90;;;;;;5072227;28;20199;-86
2021/12/11 03:49:37;;;;;;;0.30;0.10;;;-0.80;99.90;;;;;;5071229;28;20200;-86
2021/12/11 03:52:06;;;;;;;0.30;0.10;;;-0.70;99.90;;;;;;5066096;28;20199;-86
2021/12/11 03:54:36;;;;;;;0.30;0.10;;;-0.70;99.90;;;;;;5053031;28;20255;-86
2021/12/11 03:57:03;;;;;;;0.30;0.10;;;-0.80;99.90;;;;;;5070751;28;20224;-86
2021/12/11 03:59:31;;;;;;;0.30;0.10;;;-0.80;99.90;;;;;;5060047;28;20252;-86
2021/12/11 04:02:03;;;;;;;0.30;0.10;;;-0.80;99.90;;;;;;5070508;28;20203;-87
2021/12/11 04:04:35;;;;;;;0.30;0.10;;;-0.70;99.90;;;;;;5073562;28;20245;-86
2021/12/11 04:07:04;;;;;;;0.30;0.20;;;-0.70;99.90;;;;;;5085970;28;20212;-86
2021/12/11 04:09:32;;;;;;;0.52;0.52;;;-0.70;99.90;;;;;;5077255;28;20206;-86
2021/12/11 04:12:00;;;;;;;0.30;0.10;;;-0.70;99.90;;;;;;5061789;28;20199;-86
2021/12/11 04:14:30;;;;;;;0.30;0.10;;;-0.70;99.90;;;;;;5067509;28;20542;-86
2021/12/11 04:17:01;;;;;;;0.30;0.10;;;-0.70;99.90;;;;;;5062520;28;20227;-86
2021/12/11 04:19:28;;;;;;;0.30;0.10;;;-0.60;99.90;;;;;;5071615;28;20195;-86
2021/12/11 04:21:55;;;;;;;0.30;0.20;;;-0.60;99.90;;;;;;5070190;28;20638;-86
2021/12/11 04:24:29;;;;;;;0.30;0.10;;;-0.50;99.90;;;;;;5066021;28;20218;-86
2021/12/11 04:26:57;;;;;;;0.47;0.28;;;-0.60;99.90;;;;;;5061772;28;20754;-86
2021/12/11 04:29:25;;;;;;;0.30;0.10;;;-0.50;99.90;;;;;;5051789;28;20281;-86
2021/12/11 04:31:53;;;;;;;0.43;0.43;;;-0.50;99.90;;;;;;5066718;28;20202;-86
2021/12/11 04:34:23;;;;;;;0.40;0.30;;;-0.40;99.90;;;;;;5069967;28;20227;-86
2021/12/11 04:36:55;;;;;;;0.47;0.47;;;-0.40;99.90;;;;;;5068271;28;20219;-86
2021/12/11 04:39:24;;;;;;;0.30;0.10;;;-0.40;99.90;;;;;;5067097;28;20204;-86
2021/12/11 04:41:58;;;;;;;0.30;0.10;;;-0.60;99.90;;;;;;5071248;28;20252;-86
2021/12/11 04:44:33;;;;;;;0.30;0.20;;;-0.50;99.90;;;;;;5065460;28;20216;-86
2021/12/11 04:47:02;;;;;;;2.30;1.05;;;-0.60;99.90;;;;;;5068833;28;20294;-86
2021/12/11 04:49:41;;;;;;;0.30;0.10;;;-0.50;99.90;;;;;;5069302;28;20211;-86
2021/12/11 04:52:18;;;;;;;0.30;0.10;;;-0.50;99.90;;;;;;5067769;28;20211;-86
2021/12/11 04:54:58;;;;;;;0.30;0.10;;;-0.50;99.90;;;;;;5063516;28;20992;-86
2021/12/11 05:00:26;;;;;;;0.30;0.10;;;-0.30;99.90;;;;;;5057323;28;20332;-86
2021/12/11 05:05:56;;;;;;;0.30;0.10;;;-0.30;99.90;;;;;;5070172;28;20208;-85
2021/12/11 05:11:11;;;;;;;0.40;0.38;;;-0.30;99.90;;;;;;5059306;28;20209;-85
2021/12/11 05:13:38;;;;;;;0.40;0.30;;;-0.20;99.90;;;;;;5061070;28;20192;-85
2021/12/11 05:16:08;;;;;;;0.30;0.10;;;-0.30;99.90;;;;;;5062834;28;20224;-85
2021/12/11 05:18:36;;;;;;;0.30;0.10;;;-0.30;99.90;;;;;;5061492;28;20197;-85
2021/12/11 05:21:08;;;;;;;0.30;0.10;;;-0.30;99.90;;;;;;5063156;28;20239;-85
2021/12/11 05:23:35;;;;;;;0.30;0.10;;;-0.30;99.90;;;;;;5063575;28;20195;-85
2021/12/11 05:26:03;;;;;;;0.30;0.20;;;-0.20;99.90;;;;;;5068622;28;20538;-85
2021/12/11 05:28:30;;;;;;;0.30;0.10;;;-0.30;99.90;;;;;;5058029;28;20794;-85
2021/12/11 05:31:00;;;;;;;0.35;0.22;;;-0.20;99.90;;;;;;5066167;28;20203;-86
2021/12/11 05:33:28;;;;;;;0.30;0.15;;;-0.10;99.90;;;;;;5065834;28;20691;-86
2021/12/11 05:35:56;;;;;;;0.30;0.10;;;-0.10;99.90;;;;;;5065867;28;20305;-86
2021/12/11 05:38:26;;;;;;;1.75;1.65;;;-0.20;99.90;;;;;;5053743;28;20661;-86
2021/12/11 05:41:02;;;;;;;0.30;0.20;;;-0.30;99.90;;;;;;5062101;28;20231;-86
2021/12/11 05:43:31;;;;;;;0.30;0.10;;;-0.30;99.90;;;;;;5064208;28;20242;-86
2021/12/11 05:45:58;;;;;;;0.30;0.20;;;-0.30;99.90;;;;;;5065310;28;20199;-86
2021/12/11 05:48:25;;;;;;;0.30;0.10;;;-0.30;99.90;;;;;;5068826;28;20212;-86
2021/12/11 05:50:57;;;;;;;0.30;0.10;;;-0.30;99.90;;;;;;5064878;28;20295;-86
2021/12/11 05:53:26;;;;;;;0.30;0.20;;;-0.30;99.90;;;;;;5053089;28;20605;-89
2021/12/11 05:55:56;;;;;;;0.30;0.20;;;-0.20;99.90;;;;;;5059584;28;20215;-87
2021/12/11 05:58:44;;;;;;;0.68;0.68;;;-0.20;99.90;;;;;;5069676;28;20215;-87
2021/12/11 06:01:13;;;;;;;0.30;0.10;;;-0.30;99.90;;;;;;5073513;28;20199;-86
2021/12/11 06:03:40;;;;;;;0.30;0.10;;;-0.30;99.90;;;;;;5068922;28;20219;-87
2021/12/11 06:06:07;;;;;;;0.30;0.20;;;-0.30;99.90;;;;;;5064465;28;20204;-87
2021/12/11 06:08:36;;;;;;;2.30;0.83;;;-0.30;99.90;;;;;;5063017;28;20315;-88
2021/12/11 06:11:05;;;;;;;0.30;0.20;;;-0.20;99.90;;;;;;5069886;28;20546;-87
2021/12/11 06:13:33;;;;;;;0.30;0.20;;;-0.20;99.90;;;;;;5062976;28;20861;-87
2021/12/11 06:16:01;;;;;;;0.43;0.43;;;-0.20;99.90;;;;;;5061761;28;20665;-87
2021/12/11 06:18:29;;;;;;;0.30;0.10;;;-0.20;99.90;;;;;;5064424;28;20201;-87
2021/12/11 06:20:56;;;;;;;0.30;0.20;;;-0.30;99.90;;;;;;5066705;28;20458;-87
2021/12/11 06:23:23;;;;;;;0.30;0.20;;;-0.30;99.90;;;;;;5068625;28;20467;-87
2021/12/11 06:25:55;;;;;;;1.23;0.83;;;-0.30;99.90;;;;;;5063987;28;20444;-87
2021/12/11 06:28:23;;;;;;;0.30;0.20;;;-0.30;99.90;;;;;;5060266;28;20478;-87
2021/12/11 06:30:50;;;;;;;1.60;1.50;;;-0.20;99.90;;;;;;5056976;28;20825;-87
2021/12/11 06:33:17;;;;;;;1.60;1.50;;;-0.10;99.90;;;;;;5062627;28;20845;-87
2021/12/11 06:35:48;;;;;;;0.53;0.53;;;-0.10;99.90;;;;;;5066409;28;21017;-87
2021/12/11 06:38:18;;;;;;;0.30;0.10;;;0.00;99.90;;;;;;5068083;28;21028;-87
2021/12/11 06:40:46;;;;;;;0.30;0.10;;;0.00;99.90;;;;;;5065024;28;20467;-87
2021/12/11 06:43:14;;;;;;;0.30;0.10;;;0.20;99.90;;;;;;5068952;28;20247;-87
2021/12/11 06:45:42;;;;;;;0.60;0.30;;;0.40;99.90;;;;;;5063582;28;20324;-87
2021/12/11 06:48:10;;;;;;;0.30;0.10;;;0.50;99.90;;;;;;5060613;28;20475;-88
2021/12/11 06:50:37;;;;;;;0.30;0.10;;;0.60;99.90;;;;;;5058794;28;20283;-88
2021/12/11 06:53:09;;;;;;;0.30;0.10;;;0.70;99.90;;;;;;5064602;28;20209;-90
2021/12/11 06:55:36;;;;;;;0.30;0.10;;;0.90;99.90;;;;;;5082601;28;20201;-87
2021/12/11 06:58:04;;;;;;;0.30;0.10;;;1.00;99.90;;;;;;5073695;28;20521;-85
2021/12/11 07:00:33;;;;;;;0.30;0.10;;;1.10;99.90;;;;;;5063844;28;20484;-84
2021/12/11 07:03:00;;;;;;;0.30;0.10;;;1.10;99.90;;;;;;5062282;28;20201;-85
2021/12/11 07:05:27;;;;;;;0.30;0.20;;;1.10;99.90;;;;;;5068815;28;20464;-84
2021/12/11 07:07:54;;;;;;;0.30;0.10;;;1.10;99.90;;;;;;5068928;28;21015;-85
2021/12/11 07:10:23;;;;;;;0.30;0.10;;;1.10;99.90;;;;;;5066089;28;20200;-85
2021/12/11 07:12:51;;;;;;;0.30;0.10;;;1.10;99.90;;;;;;5049702;28;20456;-85
2021/12/11 07:15:19;;;;;;;0.30;0.10;;;1.10;99.90;;;;;;5061638;28;20627;-84
2021/12/11 07:17:47;;;;;;;0.30;0.10;;;1.20;99.90;;;;;;5063303;28;20829;-84
2021/12/11 07:20:16;;;;;;;0.30;0.30;;;1.20;99.90;;;;;;5069724;28;20250;-85
2021/12/11 07:22:44;;;;;;;0.30;0.10;;;1.30;99.90;;;;;;5069055;28;20513;-85
2021/12/11 07:25:18;;;;;;;1.80;1.70;;;1.30;99.90;;;;;;5066732;28;20474;-85
2021/12/11 07:27:45;;;;;;;0.30;0.10;;;1.30;99.90;;;;;;5061653;28;20510;-84
2021/12/11 07:30:13;;;;;;;0.30;0.10;;;1.30;99.90;;;;;;5065567;28;20647;-85
2021/12/11 07:32:40;;;;;;;0.30;0.10;;;1.30;99.90;;;;;;5066271;28;20221;-83
2021/12/11 07:35:09;;;;;;;0.40;0.32;;;1.30;99.90;;;;;;5072476;28;20292;-84
2021/12/11 07:37:36;;;;;;;0.30;0.10;;;1.40;99.90;;;;;;5071384;28;20229;-89
2021/12/11 07:40:05;;;;;;;0.30;0.10;;;1.50;99.90;;;;;;5072275;28;20488;-84
2021/12/11 07:42:32;;;;;;;0.30;0.10;;;1.50;99.90;;;;;;5072415;28;20504;-84
2021/12/11 07:44:59;;;;;;;0.30;0.10;;;1.60;99.90;;;;;;5072396;28;20204;-84
2021/12/11 07:47:26;;;;;;;0.30;0.10;;;1.70;99.90;;;;;;5071969;28;20513;-84
2021/12/11 07:49:53;;;;;;;0.30;0.10;;;1.70;99.90;;;;;;5074852;28;20447;-84
2021/12/11 07:52:21;;;;;;;0.30;0.10;;;1.80;99.90;;;;;;5091143;28;20500;-84
2021/12/11 07:54:48;;;;;;;0.30;0.10;;;1.90;99.90;;;;;;5076233;28;20200;-84
2021/12/11 07:57:15;;;;;;;0.30;0.10;;;2.00;99.90;;;;;;5072155;28;20585;-84
2021/12/11 07:59:42;;;;;;;0.30;0.10;;;2.00;99.90;;;;;;5072592;28;20204;-84
2021/12/11 08:02:09;;;;;;;0.30;0.10;;;2.10;99.90;;;;;;5072467;28;20443;-85
2021/12/11 08:04:36;;;;;;;0.30;0.10;;;2.10;99.90;;;;;;5071547;28;20232;-84
2021/12/11 08:07:04;;;;;;;0.30;0.10;;;2.10;99.90;;;;;;5072223;28;20447;-85
2021/12/11 08:09:32;;;;;;;0.30;0.10;;;2.20;99.90;;;;;;5067696;28;20471;-85
2021/12/11 08:12:00;;;;;;;0.30;0.10;;;2.20;99.90;;;;;;5070973;28;20220;-85
2021/12/11 08:14:27;;;;;;;0.30;0.10;;;2.30;99.90;;;;;;5071424;28;20201;-84
2021/12/11 08:16:57;;;;;;;0.30;0.10;;;2.30;99.90;;;;;;5070621;28;20313;-84
2021/12/11 08:19:27;;;;;;;0.30;0.10;;;2.30;99.90;;;;;;5071717;28;20226;-85
2021/12/11 08:21:57;;;;;;;0.30;0.10;;;2.30;99.90;;;;;;5070052;28;20543;-84
2021/12/11 08:24:27;;;;;;;0.30;0.10;;;2.30;99.90;;;;;;5067690;28;20459;-84
2021/12/11 08:26:59;;;;;;;0.30;0.10;;;2.30;99.90;;;;;;5065478;28;20495;-85
2021/12/11 08:29:26;;;;;;;0.40;0.30;;;2.30;99.90;;;;;;5063419;28;20520;-85
2021/12/11 08:31:56;;;;;;;0.30;0.13;;;2.30;99.90;;;;;;5065796;28;20508;-84
2021/12/11 08:34:23;;;;;;;0.30;0.10;;;2.30;99.90;;;;;;5055843;28;20511;-85
2021/12/11 08:36:52;;;;;;;0.97;0.97;;;2.30;99.90;;;;;;5059719;28;20598;-85
2021/12/11 08:39:20;;;;;;;0.30;0.20;;;2.30;99.90;;;;;;5066240;28;20463;-85
2021/12/11 08:41:49;;;;;;;0.30;0.10;;;2.30;99.90;;;;;;5070420;28;20501;-84
2021/12/11 08:44:18;;;;;;;0.30;0.10;;;2.30;99.90;;;;;;5069438;28;20451;-85
2021/12/11 08:46:48;;;;;;;0.30;0.10;;;2.40;99.90;;;;;;5077639;28;20452;-83
2021/12/11 08:49:20;;;;;;;0.40;0.33;;;2.30;99.90;;;;;;5066133;28;20871;-84
2021/12/11 08:51:51;;;;;;;0.30;0.10;;;2.30;99.90;;;;;;5072794;28;20460;-84
2021/12/11 08:54:19;;;;;;;0.30;0.10;;;2.40;99.90;;;;;;5065012;28;20475;-84
2021/12/11 08:56:47;;;;;;;0.30;0.10;;;2.40;99.90;;;;;;5065847;28;20455;-84
2021/12/11 08:59:18;;;;;;;0.30;0.10;;;2.50;99.90;;;;;;5070409;28;21010;-84
2021/12/11 09:01:51;;;;;;;0.30;0.10;;;2.50;99.90;;;;;;5066908;28;21039;-84
2021/12/11 09:04:22;;;;;;;0.30;0.10;;;2.60;99.90;;;;;;5061260;28;20460;-84
2021/12/11 09:06:54;;;;;;;0.30;0.10;;;2.60;99.90;;;;;;5059057;28;20460;-84
2021/12/11 09:09:28;;;;;;;0.30;0.10;;;2.70;99.90;;;;;;5070412;28;20486;-84
2021/12/11 09:11:58;;;;;;;0.30;0.10;;;2.70;99.90;;;;;;5068254;28;20537;-84
2021/12/11 09:14:31;;;;;;;0.30;0.10;;;2.70;99.90;;;;;;5055954;28;20448;-84
2021/12/11 09:17:02;;;;;;;0.30;0.10;;;2.80;99.90;;;;;;5062377;28;20515;-85
2021/12/11 09:19:32;;;;;;;0.30;0.20;;;2.70;99.90;;;;;;5051452;28;20476;-84
2021/12/11 09:22:06;;;;;;;0.30;0.10;;;2.80;99.90;;;;;;5063047;28;20467;-84
2021/12/11 09:24:38;;;;;;;0.53;0.53;;;2.90;99.90;;;;;;5059011;28;20455;-85
2021/12/11 09:27:11;;;;;;;0.30;0.10;;;2.90;99.90;;;;;;5066736;28;20479;-85
2021/12/11 09:29:43;;;;;;;0.30;0.10;;;3.00;99.90;;;;;;5064259;28;20502;-84
2021/12/11 09:32:17;;;;;;;0.30;0.10;;;3.00;99.90;;;;;;5052638;28;20449;-85
2021/12/11 09:34:47;;;;;;;0.30;0.20;;;3.00;99.90;;;;;;5063488;28;20447;-84
2021/12/11 09:37:15;;;;;;;0.30;0.10;;;3.00;99.90;;;;;;5053456;28;20515;-84
2021/12/11 09:39:45;;;;;;;0.30;0.10;;;3.00;99.90;;;;;;5065367;28;20447;-84
2021/12/11 09:42:12;;;;;;;0.30;0.10;;;3.00;99.90;;;;;;5063384;28;20440;-84
2021/12/11 09:44:46;;;;;;;0.30;0.17;;;3.10;99.90;;;;;;5079304;28;20456;-84
2021/12/11 09:47:16;;;;;;;0.30;0.10;;;3.10;99.90;;;;;;5080059;28;20439;-84
2021/12/11 09:49:46;;;;;;;0.30;0.10;;;3.20;99.90;;;;;;5071211;28;20448;-83
2021/12/11 09:52:18;;;;;;;0.30;0.10;;;3.30;99.90;;;;;;5067624;28;20436;-84
2021/12/11 09:54:48;;;;;;;0.30;0.10;;;3.20;99.90;;;;;;5069130;28;20539;-84
2021/12/11 09:57:20;;;;;;;0.30;0.10;;;3.20;99.90;;;;;;5070257;28;20543;-84
2021/12/11 09:59:51;;;;;;;0.30;0.10;;;3.20;99.90;;;;;;5056630;28;20522;-83
2021/12/11 10:02:23;;;;;;;0.30;0.10;;;3.30;99.90;;;;;;5066810;28;20444;-83
2021/12/11 10:04:59;;;;;;;0.30;0.10;;;3.20;99.90;;;;;;5057881;28;20499;-82
2021/12/11 10:07:32;;;;;;;0.30;0.10;;;3.20;99.90;;;;;;5055597;28;20515;-81
2021/12/11 10:10:10;;;;;;;0.30;0.10;;;3.20;99.90;;;;;;5070415;28;20439;-81
2021/12/11 10:12:40;;;;;;;0.30;0.20;;;3.20;99.90;;;;;;5070465;28;20451;-81
2021/12/11 10:15:17;;;;;;;0.30;0.10;;;3.20;99.90;;;;;;5068584;28;20478;-80
2021/12/11 10:17:48;;;;;;;0.30;0.10;;;3.20;99.90;;;;;;5070064;28;20509;-81
2021/12/11 10:20:22;;;;;;;0.30;0.20;;;3.10;99.90;;;;;;5069692;28;20447;-81
2021/12/11 10:22:51;;;;;;;0.30;0.10;;;3.20;99.90;;;;;;5067350;28;20471;-82
2021/12/11 10:25:21;;;;;;;0.30;0.10;;;3.10;99.90;;;;;;5070009;28;20496;-82
2021/12/11 10:27:49;;;;;;;0.30;0.10;;;3.10;99.90;;;;;;5071031;28;20582;-82
2021/12/11 10:30:21;;;;;;;0.30;0.10;;;3.10;99.90;;;;;;5066755;28;20461;-83
2021/12/11 10:32:49;;;;;;;0.30;0.10;;;3.00;99.90;;;;;;5055624;28;21009;-83
2021/12/11 10:35:20;;;;;;;0.30;0.10;;;2.90;99.90;;;;;;5064108;28;20523;-88
2021/12/11 10:37:47;;;;;;;0.30;0.10;;;2.90;99.90;;;;;;5071249;28;20942;-83
2021/12/11 10:40:19;;;;;;;0.30;0.10;;;2.90;99.90;;;;;;5089271;28;20480;-84
2021/12/11 10:42:52;;;;;;;0.30;0.10;;;2.80;99.90;;;;;;5076803;28;20456;-83
2021/12/11 10:45:21;;;;;;;0.30;0.10;;;2.80;99.90;;;;;;5069089;28;20995;-83
2021/12/11 10:47:50;;;;;;;0.30;0.20;;;2.90;99.90;;;;;;5070142;28;20447;-83
2021/12/11 10:50:22;;;;;;;0.30;0.10;;;3.00;99.90;;;;;;5069841;28;20914;-84
2021/12/11 10:52:50;;;;;;;0.30;0.10;;;2.90;99.90;;;;;;5065279;28;20453;-84
2021/12/11 10:55:20;;;;;;;0.30;0.10;;;3.00;99.90;;;;;;5052840;28;20784;-84
2021/12/11 10:57:51;;;;;;;0.30;0.10;;;3.00;99.90;;;;;;5070412;28;20566;-84
2021/12/11 11:00:29;;;;;;;0.30;0.20;;;3.00;99.90;;;;;;5068475;28;21086;-84
2021/12/11 11:02:57;;;;;;;0.30;0.10;;;3.00;99.90;;;;;;5068454;28;20853;-83
2021/12/11 11:05:26;;;;;;;0.30;0.10;;;3.10;99.90;;;;;;5067458;28;20515;-85
2021/12/11 11:07:53;;;;;;;0.30;0.10;;;3.10;99.90;;;;;;5061902;28;20483;-84
2021/12/11 11:10:23;;;;;;;0.30;0.10;;;3.00;99.90;;;;;;5069165;28;20450;-83
2021/12/11 11:12:53;;;;;;;0.30;0.10;;;3.00;99.90;;;;;;5072890;28;20475;-84
2021/12/11 11:15:23;;;;;;;0.30;0.10;;;3.10;99.90;;;;;;5071074;28;20520;-84
2021/12/11 11:17:53;;;;;;;0.30;0.10;;;3.10;99.90;;;;;;5070182;28;20529;-84
2021/12/11 11:20:23;;;;;;;0.40;0.27;;;3.00;99.90;;;;;;5071611;28;20555;-84
2021/12/11 11:22:50;;;;;;;0.30;0.10;;;3.00;99.90;;;;;;5068262;28;20927;-84
2021/12/11 11:25:20;;;;;;;0.30;0.10;;;3.00;99.90;;;;;;5065643;28;20456;-84
2021/12/11 11:27:50;;;;;;;0.30;0.10;;;3.00;99.90;;;;;;5067370;28;20497;-84
2021/12/11 11:30:27;;;;;;;0.30;0.10;;;2.90;99.90;;;;;;5073673;28;20548;-84
2021/12/11 11:32:57;;;;;;;0.30;0.10;;;3.00;99.90;;;;;;5070835;28;20461;-85
2021/12/11 11:35:27;;;;;;;0.30;0.10;;;2.90;99.90;;;;;;5068846;28;20480;-84
2021/12/11 11:37:57;;;;;;;0.30;0.10;;;3.00;99.90;;;;;;5084179;28;20978;-84
2021/12/11 11:40:27;;;;;;;0.30;0.10;;;3.10;99.90;;;;;;5072663;28;20459;-85
2021/12/11 11:42:57;;;;;;;0.30;0.10;;;3.20;99.90;;;;;;5061158;28;20989;-84
2021/12/11 11:45:25;;;;;;;0.30;0.10;;;3.10;99.90;;;;;;5062610;28;20852;-84
2021/12/11 11:47:54;;;;;;;0.30;0.10;;;3.20;99.90;;;;;;5060408;28;20449;-84
2021/12/11 11:50:25;;;;;;;0.30;0.20;;;3.20;99.90;;;;;;5058656;28;20485;-85
2021/12/11 11:52:54;;;;;;;0.30;0.10;;;3.20;99.90;;;;;;5070854;28;20514;-85
2021/12/11 11:55:26;;;;;;;0.30;0.10;;;3.30;99.90;;;;;;5071011;28;20505;-84
2021/12/11 11:57:55;;;;;;;0.30;0.10;;;3.40;99.90;;;;;;5071541;28;20471;-85
2021/12/11 12:00:27;;;;;;;0.30;0.10;;;3.30;99.90;;;;;;5071241;28;20440;-85
2021/12/11 12:02:55;;;;;;;0.30;0.20;;;3.30;99.90;;;;;;5070193;28;20497;-84
2021/12/11 12:05:26;;;;;;;0.30;0.10;;;3.20;99.90;;;;;;5070486;28;20466;-84
2021/12/11 12:07:54;;;;;;;0.30;0.10;;;3.00;99.90;;;;;;5070920;28;20467;-84
2021/12/11 12:10:23;;;;;;;0.30;0.10;;;3.00;99.90;;;;;;5072181;28;20509;-84
2021/12/11 12:12:50;;;;;;;0.30;0.17;;;2.90;99.90;;;;;;5070216;28;20456;-84
2021/12/11 12:15:21;;;;;;;0.30;0.10;;;2.80;99.90;;;;;;5071828;28;20502;-84
2021/12/11 12:17:48;;;;;;;1.23;0.63;;;2.60;99.90;;;;;;5069932;28;20548;-84
2021/12/11 12:20:17;;;;;;;0.30;0.10;;;2.60;99.90;;;;;;5068366;28;20465;-84
2021/12/11 12:22:49;;;;;;;0.30;0.10;;;2.60;99.90;;;;;;5069248;28;20501;-84
2021/12/11 12:25:17;;;;;;;0.30;0.20;;;2.60;99.90;;;;;;5065807;28;20467;-84
2021/12/11 12:27:46;;;;;;;0.30;0.10;;;2.60;99.90;;;;;;5070846;28;20484;-84
2021/12/11 12:30:17;;;;;;;0.30;0.10;;;2.60;99.90;;;;;;5065939;28;20914;-84
2021/12/11 12:32:44;;;;;;;0.30;0.10;;;2.50;99.90;;;;;;5077272;28;20446;-84
2021/12/11 12:35:14;;;;;;;0.30;0.10;;;2.50;99.90;;;;;;5073814;28;20447;-83
2021/12/11 12:37:42;;;;;;;0.30;0.10;;;2.40;99.90;;;;;;5060098;28;20908;-84
2021/12/11 12:40:15;;;;;;;0.30;0.10;;;2.40;99.90;;;;;;5066793;28;20583;-83
2021/12/11 12:42:51;;;;;;;0.30;0.10;;;2.40;99.90;;;;;;5070316;28;20444;-84
2021/12/11 12:45:21;;;;;;;0.30;0.10;;;2.30;99.90;;;;;;5066686;28;20467;-84
2021/12/11 12:47:55;;;;;;;0.30;0.10;;;2.30;99.90;;;;;;5064503;28;20463;-84
2021/12/11 12:50:25;;;;;;;0.30;0.10;;;2.30;99.90;;;;;;5066724;28;20455;-83
2021/12/11 12:52:52;;;;;;;0.52;0.52;;;2.30;99.90;;;;;;5055041;28;20460;-84
2021/12/11 12:55:24;;;;;;;0.40;0.30;;;2.20;99.90;;;;;;5065175;28;20194;-83
2021/12/11 12:57:56;;;;;;;0.30;0.10;;;2.20;99.90;;;;;;5070057;28;20862;-84
2021/12/11 13:00:27;;;;;;;0.30;0.10;;;2.20;99.90;;;;;;5062843;28;20450;-83
2021/12/11 13:02:58;;;;;;;0.30;0.10;;;2.20;99.90;;;;;;5070737;28;20475;-83
2021/12/11 13:05:30;;;;;;;0.30;0.10;;;2.20;99.90;;;;;;5068391;28;20708;-83
2021/12/11 13:08:02;;;;;;;0.30;0.20;;;2.20;99.90;;;;;;5063879;28;20206;-84
2021/12/11 13:10:34;;;;;;;0.30;0.20;;;2.20;99.90;;;;;;5068486;28;20225;-83
2021/12/11 13:13:03;;;;;;;1.27;1.17;;;2.20;99.90;;;;;;5065916;28;20207;-83
2021/12/11 13:15:34;;;;;;;0.70;0.60;;;2.20;99.90;;;;;;5068462;28;20473;-83